Metar Aviation Weather Data     LEVC Valencia Airport



Temperature
21°C Temperature
19°C Dewpoint
88% Humidity



Wind
5 KM/H
3 MPH
1 M/S
3 KTS



260°
West
Current Conditions

Partly Cloudy Partly Cloudy
Pressure 1012.92 (hPa) - 29.91 (inHg)
Visibility 6.2 (mile) - 10 (km)
Airport
Airport-code LEVC

Location: Valencia Airport
Distance: 18 (km)

Metar:
LEVC 180530Z 26003KT 9999 FEW030 21/19 Q1013 NOSIG

Time: 18-09-2021 07:30 CEST

Follow @meteolliria2013